createdAt,value
2023-03-05T00:01:54.974Z,43.35
2023-03-05T00:04:21.585Z,42.78
2023-03-05T00:06:48.141Z,41.83
2023-03-05T00:09:14.756Z,40.78
2023-03-05T00:11:41.385Z,41.33
2023-03-05T00:14:08.017Z,41.78
2023-03-05T00:16:34.684Z,49.38
2023-03-05T00:19:01.640Z,38.78
2023-03-05T00:21:32.490Z,40.35
2023-03-05T00:24:03.586Z,38.85
2023-03-05T00:26:31.236Z,35.85
2023-03-05T00:28:58.629Z,39.20
2023-03-05T00:31:31.289Z,36.38
2023-03-05T00:34:01.352Z,38.92
2023-03-05T00:36:28.869Z,37.45
2023-03-05T00:38:55.621Z,40.72
2023-03-05T00:41:22.417Z,38.63
2023-03-05T00:43:49.205Z,40.92
2023-03-05T00:46:16.690Z,38.42
2023-03-05T00:48:43.379Z,42.92
2023-03-05T00:51:10.192Z,38.55
2023-03-05T00:53:36.779Z,39.10
2023-03-05T00:56:05.024Z,39.70
2023-03-05T00:58:31.613Z,38.05
2023-03-05T01:01:00.113Z,40.83
2023-03-05T01:03:27.528Z,39.92
2023-03-05T01:05:55.713Z,40.15
2023-03-05T01:08:22.277Z,37.63
2023-03-05T01:10:49.031Z,39.63
2023-03-05T01:13:15.652Z,42.47
2023-03-05T01:15:42.556Z,37.92
2023-03-05T01:18:09.134Z,40.40
2023-03-05T01:20:36.055Z,39.30
2023-03-05T01:23:02.730Z,39.50
2023-03-05T01:25:29.320Z,40.25
2023-03-05T01:27:56.669Z,38.35
2023-03-05T01:30:23.399Z,41.92
2023-03-05T01:32:50.073Z,40.97
2023-03-05T01:35:20.697Z,38.80
2023-03-05T01:37:47.569Z,41.40
2023-03-05T01:40:17.383Z,39.50
2023-03-05T01:42:48.704Z,40.33
2023-03-05T01:45:17.963Z,38.55
2023-03-05T01:47:45.304Z,40.83
2023-03-05T01:50:17.285Z,39.70
2023-03-05T01:52:49.621Z,39.45
2023-03-05T01:55:37.214Z,38.97
2023-03-05T01:58:08.095Z,39.33
2023-03-05T02:00:40.370Z,38.83
2023-03-05T02:03:10.649Z,41.15
2023-03-05T02:05:39.384Z,39.90
2023-03-05T02:08:09.208Z,40.40
2023-03-05T02:10:50.831Z,38.97
2023-03-05T02:13:22.594Z,41.20
2023-03-05T02:15:49.956Z,40.22
2023-03-05T02:18:18.316Z,40.83
2023-03-05T02:20:57.281Z,39.08
2023-03-05T02:23:30.204Z,42.95
2023-03-05T02:25:56.782Z,42.03
2023-03-05T02:28:29.543Z,38.70
2023-03-05T02:30:56.259Z,43.08
2023-03-05T02:33:23.332Z,39.63
2023-03-05T02:35:50.217Z,41.83
2023-03-05T02:38:18.883Z,41.25
2023-03-05T02:40:45.622Z,41.50
2023-03-05T02:43:13.620Z,42.65
2023-03-05T02:45:40.449Z,40.85
2023-03-05T02:48:07.054Z,43.63
2023-03-05T02:50:34.340Z,39.88
2023-03-05T02:53:00.909Z,40.55
2023-03-05T02:55:28.205Z,37.83
2023-03-05T02:57:54.771Z,42.75
2023-03-05T03:00:22.545Z,40.60
2023-03-05T03:02:49.722Z,43.30
2023-03-05T03:05:16.338Z,41.47
2023-03-05T03:07:42.877Z,40.53
2023-03-05T03:10:10.435Z,43.50
2023-03-05T03:12:41.663Z,43.25
2023-03-05T03:15:09.933Z,39.70
2023-03-05T03:17:37.626Z,41.55
2023-03-05T03:20:07.662Z,39.58
2023-03-05T03:22:34.335Z,41.53
2023-03-05T03:25:01.437Z,40.88
2023-03-05T03:27:28.159Z,40.30
2023-03-05T03:29:54.744Z,41.30
2023-03-05T03:32:21.398Z,38.67
2023-03-05T03:34:48.331Z,39.47
2023-03-05T03:37:15.162Z,38.70
2023-03-05T03:39:41.713Z,37.85
2023-03-05T03:42:08.304Z,42.15
2023-03-05T03:44:34.899Z,39.22
2023-03-05T03:47:02.427Z,38.65
2023-03-05T03:49:28.996Z,39.42
2023-03-05T03:51:55.917Z,37.88
2023-03-05T03:54:22.877Z,37.60
2023-03-05T03:56:49.446Z,39.45
2023-03-05T03:59:16.206Z,39.55
2023-03-05T04:01:43.225Z,39.28
2023-03-05T04:04:11.683Z,40.63
2023-03-05T04:06:38.751Z,42.50
2023-03-05T04:09:06.099Z,40.78
2023-03-05T04:11:32.643Z,42.65
2023-03-05T04:13:59.242Z,38.30
2023-03-05T04:16:26.162Z,42.05
2023-03-05T04:18:53.103Z,41.58
2023-03-05T04:21:19.706Z,41.72
2023-03-05T04:23:46.309Z,38.65
2023-03-05T04:26:12.926Z,41.47
2023-03-05T04:28:39.621Z,42.03
2023-03-05T04:31:06.256Z,41.72
2023-03-05T04:33:33.812Z,41.55
2023-03-05T04:36:00.470Z,43.28
2023-03-05T04:38:27.100Z,41.88
2023-03-05T04:40:53.788Z,40.17
2023-03-05T04:43:20.420Z,41.58
2023-03-05T04:45:46.948Z,40.70
2023-03-05T04:48:13.704Z,38.95
2023-03-05T04:50:40.244Z,38.40
2023-03-05T04:53:06.911Z,39.95
2023-03-05T04:55:33.497Z,37.65
2023-03-05T04:58:00.010Z,40.03
2023-03-05T05:00:26.537Z,41.05
2023-03-05T05:02:53.548Z,40.22
2023-03-05T05:05:23.159Z,38.38
2023-03-05T05:07:50.159Z,41.20
2023-03-05T05:10:17.354Z,39.60
2023-03-05T05:12:43.840Z,41.40
2023-03-05T05:15:12.132Z,41.55
2023-03-05T05:17:38.854Z,42.42
2023-03-05T05:20:08.828Z,42.45
2023-03-05T05:22:35.697Z,38.33
2023-03-05T05:25:03.041Z,42.03
2023-03-05T05:27:29.660Z,41.88
2023-03-05T05:29:56.476Z,40.90
2023-03-05T05:32:24.161Z,41.35
2023-03-05T05:34:58.552Z,40.30
2023-03-05T05:37:26.638Z,39.40
2023-03-05T05:39:53.821Z,38.53
2023-03-05T05:42:22.828Z,39.47
2023-03-05T05:44:50.060Z,39.38
2023-03-05T05:47:18.232Z,41.03
2023-03-05T05:49:44.881Z,42.58
2023-03-05T05:52:11.498Z,38.63
2023-03-05T05:54:38.784Z,39.38
2023-03-05T05:57:05.982Z,42.03
2023-03-05T05:59:32.661Z,40.40
2023-03-05T06:01:59.578Z,38.97
2023-03-05T06:04:26.244Z,45.65
2023-03-05T06:06:52.774Z,42.50
2023-03-05T06:09:19.451Z,42.55
2023-03-05T06:11:46.033Z,39.63
2023-03-05T06:14:13.247Z,40.13
2023-03-05T06:16:40.393Z,39.67
2023-03-05T06:19:08.792Z,38.33
2023-03-05T06:21:35.257Z,40.33
2023-03-05T06:24:01.823Z,41.13
2023-03-05T06:26:28.271Z,41.10
2023-03-05T06:31:25.623Z,40.85
2023-03-05T06:33:55.268Z,43.53
2023-03-05T06:36:23.307Z,41.58
2023-03-05T06:38:53.040Z,39.08
2023-03-05T06:41:23.282Z,40.42
2023-03-05T06:43:50.288Z,43.60
2023-03-05T06:46:19.705Z,44.85
2023-03-05T06:48:46.536Z,43.38
2023-03-05T06:51:18.567Z,40.15
2023-03-05T06:53:48.981Z,41.20
2023-03-05T06:56:16.723Z,44.85
2023-03-05T06:58:45.784Z,43.40
2023-03-05T07:01:13.116Z,44.00
2023-03-05T07:03:40.333Z,39.83
2023-03-05T07:06:08.968Z,47.13
2023-03-05T07:08:36.476Z,44.20
2023-03-05T07:11:03.991Z,42.85
2023-03-05T07:13:30.521Z,44.38
2023-03-05T07:15:57.153Z,43.38
2023-03-05T07:18:23.629Z,45.53
2023-03-05T07:20:50.120Z,42.42
2023-03-05T07:23:16.625Z,45.00
2023-03-05T07:25:43.159Z,47.03
2023-03-05T07:28:10.657Z,43.53
2023-03-05T07:30:37.254Z,42.28
2023-03-05T07:33:03.851Z,47.05
2023-03-05T07:35:30.348Z,42.70
2023-03-05T07:37:56.980Z,44.55
2023-03-05T07:40:23.559Z,43.78
2023-03-05T07:42:50.114Z,44.97
2023-03-05T07:45:24.375Z,45.08
2023-03-05T07:47:52.551Z,46.63
2023-03-05T07:50:19.176Z,44.28
2023-03-05T07:52:45.689Z,46.63
2023-03-05T07:57:39.001Z,44.15
2023-03-05T08:00:07.001Z,42.67
2023-03-05T08:02:38.196Z,45.25
2023-03-05T08:05:05.039Z,41.78
2023-03-05T08:07:31.541Z,41.80
2023-03-05T08:09:58.055Z,42.95
2023-03-05T08:12:24.595Z,40.50
2023-03-05T08:14:51.556Z,42.88
2023-03-05T08:17:18.269Z,43.22
2023-03-05T08:19:44.752Z,42.90
2023-03-05T08:22:11.479Z,41.22
2023-03-05T08:24:38.009Z,40.25
2023-03-05T08:29:30.852Z,42.42
2023-03-05T08:31:57.306Z,41.40
2023-03-05T08:36:50.251Z,40.03
2023-03-05T08:39:17.168Z,40.85
2023-03-05T08:41:43.670Z,39.47
2023-03-05T08:44:10.313Z,37.38
2023-03-05T08:46:39.603Z,39.30
2023-03-05T08:49:07.394Z,39.22
2023-03-05T08:51:34.760Z,39.05
2023-03-05T08:54:02.493Z,36.60
2023-03-05T08:56:31.213Z,37.17
2023-03-05T08:58:57.693Z,36.05
2023-03-05T09:03:51.027Z,32.97
2023-03-05T09:06:17.617Z,36.15
2023-03-05T09:08:44.067Z,36.15
2023-03-05T09:13:39.369Z,36.17
2023-03-05T09:16:09.057Z,32.90
2023-03-05T09:18:36.675Z,36.63
2023-03-05T09:21:14.878Z,36.05
2023-03-05T09:23:42.203Z,34.72
2023-03-05T09:26:12.020Z,33.50
2023-03-05T09:28:39.759Z,35.42
2023-03-05T09:31:08.017Z,35.75
2023-03-05T09:33:36.031Z,36.97
2023-03-05T09:36:04.502Z,34.95
2023-03-05T09:38:31.370Z,33.92
2023-03-05T09:41:16.942Z,32.90
2023-03-05T09:43:55.325Z,34.55
2023-03-05T09:46:36.424Z,31.15
2023-03-05T09:49:11.500Z,33.28
2023-03-05T09:51:41.378Z,30.98
2023-03-05T09:54:30.306Z,32.17
2023-03-05T09:57:02.646Z,30.83
2023-03-05T09:59:35.948Z,27.55
2023-03-05T10:02:17.045Z,31.27
2023-03-05T10:04:58.303Z,28.58
2023-03-05T10:07:30.727Z,29.02
2023-03-05T10:10:05.134Z,28.67
2023-03-05T10:12:48.432Z,28.77
2023-03-05T10:15:16.980Z,29.60
2023-03-05T10:17:58.699Z,29.80
2023-03-05T10:20:39.129Z,30.05
2023-03-05T10:23:08.732Z,28.75
2023-03-05T10:25:53.353Z,28.70
2023-03-05T10:28:43.873Z,26.67
2023-03-05T10:31:25.940Z,26.08
2023-03-05T10:34:32.547Z,25.38
2023-03-05T10:37:09.703Z,24.85
2023-03-05T10:40:05.954Z,27.55
2023-03-05T10:42:41.591Z,25.70
2023-03-05T10:45:15.469Z,22.90
2023-03-05T10:47:55.495Z,23.60
2023-03-05T10:50:27.828Z,23.75
2023-03-05T10:53:15.229Z,24.23
2023-03-05T10:55:42.109Z,27.98
2023-03-05T10:58:14.996Z,25.23
2023-03-05T11:01:18.847Z,23.70
2023-03-05T11:03:51.175Z,23.55
2023-03-05T11:06:27.127Z,23.98
2023-03-05T11:08:53.777Z,23.43
2023-03-05T11:14:01.011Z,22.55
2023-03-05T11:16:31.540Z,22.48
2023-03-05T11:19:17.616Z,21.58
2023-03-05T11:21:45.627Z,22.60
2023-03-05T11:24:16.227Z,21.92
2023-03-05T11:26:49.921Z,20.77
2023-03-05T11:29:31.030Z,19.65
2023-03-05T11:32:35.468Z,20.73
2023-03-05T11:35:02.017Z,20.50
2023-03-05T11:40:18.105Z,19.67
2023-03-05T11:42:45.190Z,19.20
2023-03-05T11:45:16.972Z,19.17
2023-03-05T11:47:52.101Z,19.00
2023-03-05T11:50:35.825Z,17.83
2023-03-05T11:53:07.517Z,15.45
2023-03-05T11:55:37.073Z,18.13
2023-03-05T11:58:27.152Z,16.10
2023-03-05T12:00:53.623Z,19.65
2023-03-05T12:06:27.445Z,16.15
2023-03-05T12:08:57.635Z,17.40
2023-03-05T12:11:28.999Z,17.08
2023-03-05T12:14:19.342Z,16.65
2023-03-05T12:16:50.791Z,16.60
2023-03-05T12:19:31.904Z,15.25
2023-03-05T12:21:59.307Z,14.90
2023-03-05T12:24:28.113Z,14.02
2023-03-05T12:27:06.413Z,15.60
2023-03-05T12:29:32.843Z,16.45
2023-03-05T12:34:40.900Z,13.73
2023-03-05T12:37:20.601Z,13.98
2023-03-05T12:39:52.589Z,15.07
2023-03-05T12:42:45.161Z,16.58
2023-03-05T12:45:11.789Z,14.10
2023-03-05T12:48:13.492Z,13.48
2023-03-05T12:50:40.026Z,12.95
2023-03-05T12:55:48.542Z,14.38
2023-03-05T12:58:21.202Z,13.57
2023-03-05T13:01:02.497Z,11.93
2023-03-05T13:03:33.556Z,11.23
2023-03-05T13:06:00.877Z,10.95
2023-03-05T13:08:31.619Z,11.25
2023-03-05T13:11:06.192Z,11.18
2023-03-05T13:13:38.722Z,11.73
2023-03-05T13:16:05.713Z,11.65
2023-03-05T13:18:33.077Z,9.50
2023-03-05T13:21:12.215Z,10.63
2023-03-05T13:23:57.605Z,11.38
2023-03-05T13:26:28.657Z,11.32
2023-03-05T13:29:18.828Z,8.98
2023-03-05T13:32:01.728Z,9.90
2023-03-05T13:34:44.604Z,10.88
2023-03-05T13:37:20.974Z,9.80
2023-03-05T13:40:00.440Z,9.13
2023-03-05T13:42:34.473Z,9.30
2023-03-05T13:45:04.707Z,9.63
2023-03-05T13:47:34.005Z,12.10
2023-03-05T13:50:06.519Z,12.07
2023-03-05T13:52:36.049Z,11.25
2023-03-05T13:55:11.844Z,10.85
2023-03-05T13:57:44.556Z,10.90
2023-03-05T14:00:31.111Z,10.73
2023-03-05T14:03:01.042Z,11.77
2023-03-05T14:05:30.886Z,11.75
2023-03-05T14:07:57.650Z,11.73
2023-03-05T14:10:29.313Z,11.95
2023-03-05T14:12:56.760Z,11.75
2023-03-05T14:15:28.927Z,11.55
2023-03-05T14:18:12.170Z,11.02
2023-03-05T14:20:40.450Z,11.38
2023-03-05T14:23:32.887Z,11.60
2023-03-05T14:26:20.808Z,12.00
2023-03-05T14:28:52.941Z,12.63
2023-03-05T14:31:21.095Z,13.75
2023-03-05T14:33:49.494Z,12.95
2023-03-05T14:36:23.455Z,12.98
2023-03-05T14:38:51.805Z,12.70
2023-03-05T14:41:22.588Z,12.23
2023-03-05T14:43:49.067Z,12.07
2023-03-05T14:48:42.176Z,11.80
2023-03-05T14:51:10.771Z,12.25
2023-03-05T14:53:46.343Z,12.23
2023-03-05T14:56:22.362Z,12.65
2023-03-05T14:58:48.951Z,11.55
2023-03-05T15:01:15.540Z,11.10
2023-03-05T15:03:42.396Z,12.35
2023-03-05T15:06:18.653Z,12.02
2023-03-05T15:08:45.486Z,11.30
2023-03-05T15:11:12.020Z,14.43
2023-03-05T15:13:38.594Z,14.30
2023-03-05T15:16:06.813Z,15.45
2023-03-05T15:18:33.413Z,15.05
2023-03-05T15:21:00.220Z,13.20
2023-03-05T15:23:29.705Z,14.38
2023-03-05T15:25:56.205Z,15.27
2023-03-05T15:30:49.157Z,14.70
2023-03-05T15:33:17.016Z,16.70
2023-03-05T15:35:44.304Z,16.95
2023-03-05T15:38:10.975Z,16.02
2023-03-05T15:40:37.459Z,17.00
2023-03-05T15:45:33.754Z,18.83
2023-03-05T15:48:00.298Z,16.27
2023-03-05T15:50:28.219Z,18.13
2023-03-05T15:55:21.374Z,17.52
2023-03-05T15:57:50.257Z,17.40
2023-03-05T16:00:23.785Z,17.92
2023-03-05T16:02:52.326Z,17.60
2023-03-05T16:05:18.758Z,16.88
2023-03-05T16:10:17.443Z,19.92
2023-03-05T16:12:47.255Z,17.65
2023-03-05T16:15:16.027Z,16.80
2023-03-05T16:17:45.296Z,16.95
2023-03-05T16:20:12.672Z,15.85
2023-03-05T16:22:39.170Z,17.75
2023-03-05T16:25:06.150Z,16.60
2023-03-05T16:27:32.809Z,15.35
2023-03-05T16:29:59.275Z,17.80
2023-03-05T16:34:52.454Z,14.57
2023-03-05T16:39:46.964Z,15.25
2023-03-05T16:42:13.859Z,14.65
2023-03-05T16:44:41.598Z,16.33
2023-03-05T16:47:09.277Z,16.00
2023-03-05T16:49:36.631Z,14.68
2023-03-05T16:52:16.445Z,14.77
2023-03-05T16:54:45.256Z,16.05
2023-03-05T16:57:12.153Z,15.48
2023-03-05T16:59:38.764Z,15.73
2023-03-05T17:02:06.172Z,15.05
2023-03-05T17:04:32.876Z,14.27
2023-03-05T17:06:59.504Z,15.35
2023-03-05T17:09:26.052Z,16.55
2023-03-05T17:11:54.040Z,17.35
2023-03-05T17:14:20.813Z,15.98
2023-03-05T17:16:47.608Z,16.50
2023-03-05T17:19:14.630Z,15.68
2023-03-05T17:21:42.477Z,15.90
2023-03-05T17:24:09.945Z,15.82
2023-03-05T17:26:36.944Z,17.98
2023-03-05T17:29:04.950Z,17.05
2023-03-05T17:31:31.825Z,18.98
2023-03-05T17:33:58.426Z,18.85
2023-03-05T17:36:25.666Z,16.92
2023-03-05T17:38:53.956Z,14.68
2023-03-05T17:41:21.004Z,14.52
2023-03-05T17:43:47.851Z,15.32
2023-03-05T17:46:14.859Z,16.52
2023-03-05T17:48:41.697Z,17.80
2023-03-05T17:51:11.421Z,17.92
2023-03-05T17:53:39.379Z,16.10
2023-03-05T17:56:08.267Z,16.98
2023-03-05T17:58:34.959Z,15.85
2023-03-05T18:01:01.544Z,17.60
2023-03-05T18:03:28.003Z,17.23
2023-03-05T18:08:21.039Z,16.98
2023-03-05T18:10:47.642Z,16.30
2023-03-05T18:13:14.281Z,16.13
2023-03-05T18:15:47.321Z,18.92
2023-03-05T18:18:18.155Z,19.90
2023-03-05T18:20:45.815Z,21.83
2023-03-05T18:23:12.640Z,24.77
2023-03-05T18:25:39.264Z,22.02
2023-03-05T18:28:08.376Z,19.65
2023-03-05T18:30:35.480Z,18.30
2023-03-05T18:33:02.202Z,17.52
2023-03-05T18:35:29.310Z,17.58
2023-03-05T18:37:56.759Z,17.63
2023-03-05T18:40:25.896Z,16.45
2023-03-05T18:42:52.621Z,17.42
2023-03-05T18:45:20.546Z,17.67
2023-03-05T18:47:47.942Z,16.88
2023-03-05T18:50:18.495Z,17.85
2023-03-05T18:52:45.792Z,17.65
2023-03-05T18:55:16.040Z,18.30
2023-03-05T18:57:42.529Z,17.83
2023-03-05T19:00:13.038Z,19.20
2023-03-05T19:02:39.519Z,19.30
2023-03-05T19:05:06.292Z,18.67
2023-03-05T19:07:34.918Z,18.08
2023-03-05T19:10:07.454Z,19.27
2023-03-05T19:12:38.293Z,18.08
2023-03-05T19:15:05.823Z,19.10
2023-03-05T19:17:32.766Z,19.10
2023-03-05T19:19:59.712Z,20.17
2023-03-05T19:22:28.431Z,20.23
2023-03-05T19:24:55.059Z,20.92
2023-03-05T19:27:21.528Z,20.80
2023-03-05T19:32:17.672Z,22.33
2023-03-05T19:34:47.636Z,24.95
2023-03-05T19:37:14.870Z,25.17
2023-03-05T19:39:42.267Z,24.65
2023-03-05T19:42:08.839Z,25.42
2023-03-05T19:44:35.341Z,23.83
2023-03-05T19:47:01.916Z,25.17
2023-03-05T19:49:28.719Z,22.88
2023-03-05T19:51:55.607Z,24.75
2023-03-05T19:54:22.929Z,23.48
2023-03-05T19:56:50.838Z,26.95
2023-03-05T19:59:21.050Z,25.48
2023-03-05T20:01:48.731Z,23.85
2023-03-05T20:04:18.589Z,24.00
2023-03-05T20:06:45.436Z,24.40
2023-03-05T20:09:12.119Z,22.50
2023-03-05T20:11:39.535Z,23.77
2023-03-05T20:14:06.802Z,23.35
2023-03-05T20:16:35.182Z,23.25
2023-03-05T20:19:04.577Z,23.02
2023-03-05T20:21:34.406Z,20.80
2023-03-05T20:24:09.489Z,24.08
2023-03-05T20:26:38.665Z,23.58
2023-03-05T20:29:06.235Z,21.67
2023-03-05T20:31:36.716Z,24.40
2023-03-05T20:34:09.030Z,24.55
2023-03-05T20:36:35.853Z,23.15
2023-03-05T20:39:04.535Z,23.83
2023-03-05T20:41:31.559Z,22.88
2023-03-05T20:43:58.112Z,24.95
2023-03-05T20:46:27.407Z,23.50
2023-03-05T20:48:57.608Z,24.98
2023-03-05T20:51:45.994Z,24.27
2023-03-05T20:54:13.334Z,26.23
2023-03-05T20:56:39.913Z,24.05
2023-03-05T20:59:08.714Z,25.30
2023-03-05T21:01:37.511Z,25.30
2023-03-05T21:04:04.626Z,23.58
2023-03-05T21:06:32.895Z,23.08
2023-03-05T21:09:00.121Z,23.80
2023-03-05T21:11:27.959Z,23.70
2023-03-05T21:13:54.458Z,22.58
2023-03-05T21:16:24.668Z,22.27
2023-03-05T21:18:52.318Z,23.30
2023-03-05T21:21:19.555Z,23.45
2023-03-05T21:23:46.977Z,24.45
2023-03-05T21:26:13.756Z,23.20
2023-03-05T21:28:41.005Z,22.23
2023-03-05T21:31:10.256Z,25.48
2023-03-05T21:33:37.231Z,24.30
2023-03-05T21:36:04.554Z,23.77
2023-03-05T21:38:33.889Z,23.08
2023-03-05T21:41:01.765Z,23.27
2023-03-05T21:43:28.851Z,25.67
2023-03-05T21:45:57.196Z,23.35
2023-03-05T21:48:24.948Z,22.70
2023-03-05T21:50:51.545Z,22.52
2023-03-05T21:53:19.104Z,24.13
2023-03-05T21:56:05.132Z,26.80
2023-03-05T21:58:33.590Z,23.42
2023-03-05T22:01:00.836Z,22.25
2023-03-05T22:03:28.498Z,22.00
2023-03-05T22:05:55.483Z,23.77
2023-03-05T22:08:22.641Z,23.52
2023-03-05T22:10:50.295Z,23.55
2023-03-05T22:13:17.861Z,23.88
2023-03-05T22:15:48.308Z,24.42
2023-03-05T22:18:17.714Z,23.60
2023-03-05T22:20:44.925Z,23.92
2023-03-05T22:23:12.543Z,23.33
2023-03-05T22:25:39.612Z,22.02
2023-03-05T22:28:06.937Z,23.77
2023-03-05T22:30:33.541Z,22.10
2023-03-05T22:33:01.971Z,23.38
2023-03-05T22:35:29.324Z,23.10
2023-03-05T22:37:55.831Z,24.33
2023-03-05T22:40:24.000Z,23.85
2023-03-05T22:42:50.732Z,22.73
2023-03-05T22:45:18.031Z,22.67
2023-03-05T22:47:49.334Z,23.95
2023-03-05T22:50:19.441Z,24.83
2023-03-05T22:52:46.386Z,23.90
2023-03-05T22:55:15.345Z,24.42
2023-03-05T22:57:42.711Z,22.73
2023-03-05T23:00:14.370Z,25.00
2023-03-05T23:18:10.417Z,21.67
2023-03-05T23:20:38.446Z,23.05
2023-03-05T23:23:04.995Z,22.38
2023-03-05T23:25:33.905Z,23.80
2023-03-05T23:28:01.749Z,22.05
2023-03-05T23:30:29.937Z,23.25
2023-03-05T23:32:59.983Z,22.42
2023-03-05T23:35:30.019Z,24.63
2023-03-05T23:37:58.972Z,24.52
2023-03-05T23:40:28.272Z,24.77
2023-03-05T23:42:55.051Z,23.33
2023-03-05T23:45:22.732Z,24.08
2023-03-05T23:47:51.143Z,24.75
2023-03-05T23:50:21.193Z,24.85
2023-03-05T23:52:48.560Z,24.45
2023-03-05T23:55:18.321Z,22.33
2023-03-05T23:57:47.217Z,22.83
